page 5459 of 1003808 registered users

eBook PostsUsers

  1. 0degree0deal registered @ 2013-01-16 18:08:07, last login @ 2013-01-16 18:08:07
  2. 0tradewoman92 registered @ 2013-01-16 18:08:20, last login @ 2013-01-16 18:08:20
  3. 0hemp31beast registered @ 2013-01-16 18:09:13, last login @ 2013-01-16 18:09:13
  4. 0witchsleep5 registered @ 2013-01-16 18:10:15, last login @ 2013-01-16 18:10:15
  5. 0cork54talk registered @ 2013-01-16 18:10:41, last login @ 2013-01-16 18:10:41
  6. 0pasta6cough registered @ 2013-01-16 18:11:51, last login @ 2013-01-16 18:11:51
  7. 0clausbrace1 registered @ 2013-01-16 18:12:23, last login @ 2013-01-16 18:12:23
  8. 0puppy5drink registered @ 2013-01-16 18:13:44, last login @ 2013-01-16 18:13:44
  9. 0crybone1 registered @ 2013-01-16 18:14:19, last login @ 2013-01-16 18:14:19
  10. 0dugouttune96 registered @ 2013-01-16 18:14:21, last login @ 2013-01-16 18:14:21
  11. 0mablemangiafico992 registered @ 2013-01-16 18:16:05, last login @ 2013-01-16 18:16:05
  12. 0ashish_tiwari registered @ 2013-01-16 18:16:20, last login @ 2013-01-16 18:16:20
  13. 0ink90spade registered @ 2013-01-16 18:17:32, last login @ 2013-01-16 18:17:32
  14. 0planet21purple registered @ 2013-01-16 18:18:19, last login @ 2013-01-16 18:18:19
  15. 0bengaldryer7 registered @ 2013-01-16 18:18:32, last login @ 2013-01-16 18:54:00
  16. 0tiredesk6 registered @ 2013-01-16 18:18:52, last login @ 2013-01-16 18:51:27
  17. 0helmetwren6 registered @ 2013-01-16 18:19:13, last login @ 2013-01-16 18:19:13
  18. 0push69cornet registered @ 2013-01-16 18:19:22, last login @ 2013-01-16 18:19:22
  19. 0beast91blue registered @ 2013-01-16 18:20:36, last login @ 2013-01-16 18:20:36
  20. 0locust84phone registered @ 2013-01-16 18:22:51, last login @ 2013-01-16 18:22:51
  21. 0bed4drink registered @ 2013-01-16 18:23:52, last login @ 2013-01-16 18:23:52
  22. 0conga72air registered @ 2013-01-16 18:24:40, last login @ 2013-01-16 18:24:40
  23. 0beachsanta7 registered @ 2013-01-16 18:25:24, last login @ 2013-01-16 18:25:24
  24. 0dimpleshake6 registered @ 2013-01-16 18:27:54, last login @ 2013-01-16 18:27:54
  25. 0ratnakarpandey registered @ 2013-01-16 18:27:55, last login @ 2013-01-16 18:27:55
  26. 0handlepastor6 registered @ 2013-01-16 18:28:44, last login @ 2013-01-16 18:58:18
  27. 0ball1east registered @ 2013-01-16 18:29:08, last login @ 2013-01-16 18:29:08
  28. 0Federica registered @ 2013-01-16 18:29:17, last login @ 2013-01-16 18:29:17
  29. 0cloudydesert4 registered @ 2013-01-16 18:29:19, last login @ 2013-01-16 18:29:19
  30. 0deadbeast67 registered @ 2013-01-16 18:29:30, last login @ 2013-01-16 18:29:30
  31. 0dill3needle registered @ 2013-01-16 18:30:11, last login @ 2013-01-16 18:30:11
  32. 0tinsmile38 registered @ 2013-01-16 18:30:13, last login @ 2013-01-16 18:30:13
  33. 0scenetile9 registered @ 2013-01-16 18:30:50, last login @ 2013-01-16 18:30:50
  34. 0shame50cycle registered @ 2013-01-16 18:31:08, last login @ 2013-01-16 18:31:08
  35. 0attack03candle registered @ 2013-01-16 18:32:20, last login @ 2013-01-16 18:32:20
  36. 0dream0chard registered @ 2013-01-16 18:32:35, last login @ 2013-01-16 18:32:35
  37. 0enemybugle69 registered @ 2013-01-16 18:32:42, last login @ 2013-01-16 18:32:42
  38. 0file62desire registered @ 2013-01-16 18:32:51, last login @ 2013-01-16 18:32:51
  39. 0goose4cry registered @ 2013-01-16 18:34:35, last login @ 2013-01-16 18:34:35
  40. 0mexicoslip2 registered @ 2013-01-16 18:35:13, last login @ 2013-01-16 18:35:13
  41. 0manxsanta35 registered @ 2013-01-16 18:35:36, last login @ 2013-01-16 18:35:36
  42. 0chaincollar6 registered @ 2013-01-16 18:36:12, last login @ 2013-01-16 18:36:12
  43. 0bumper29yard registered @ 2013-01-16 18:36:33, last login @ 2013-01-16 18:36:33
  44. 0salmon7witch registered @ 2013-01-16 18:37:26, last login @ 2013-01-16 18:37:26
  45. 0cablewater2 registered @ 2013-01-16 18:37:55, last login @ 2013-01-16 18:37:55
  46. 0sun84throat registered @ 2013-01-16 18:39:00, last login @ 2013-01-16 18:39:00
  47. 0cloudhammer5 registered @ 2013-01-16 18:40:06, last login @ 2013-01-16 18:40:06
  48. 0bustext93 registered @ 2013-01-16 18:41:01, last login @ 2013-01-16 18:41:01
  49. 0cocoabeggar04 registered @ 2013-01-16 18:42:03, last login @ 2013-01-16 18:42:03
  50. 0memorytown3 registered @ 2013-01-16 18:42:21, last login @ 2013-01-16 18:42:21
  51. 0lion2grip registered @ 2013-01-16 18:42:22, last login @ 2013-01-16 18:42:22
  52. 0swordwaiter4 registered @ 2013-01-16 18:43:43, last login @ 2013-01-16 18:43:43
  53. 0campwar24 registered @ 2013-01-16 18:44:54, last login @ 2013-01-16 18:44:54
  54. 0pv registered @ 2013-01-16 18:46:09, last login @ 2013-01-16 18:46:09
  55. 0virgoheat6 registered @ 2013-01-16 18:46:31, last login @ 2013-01-16 18:46:31
  56. 0johnmecay registered @ 2013-01-16 18:47:11, last login @ 2013-01-16 18:47:11
  57. 0monthtwist45 registered @ 2013-01-16 18:47:16, last login @ 2013-01-16 18:47:16
  58. 0traycloth4 registered @ 2013-01-16 18:48:13, last login @ 2013-01-16 18:48:13
  59. 0blood5height registered @ 2013-01-16 18:49:01, last login @ 2013-01-16 18:49:01
  60. 0santafelony56 registered @ 2013-01-16 18:50:12, last login @ 2013-01-16 18:50:12
  61. 0juiceinput65 registered @ 2013-01-16 18:50:20, last login @ 2013-01-16 18:50:20
  62. 0cartcough8 registered @ 2013-01-16 18:50:36, last login @ 2013-01-16 18:50:36
  63. 0syrup3sex registered @ 2013-01-16 18:51:59, last login @ 2013-01-16 18:51:59
  64. 0berrymimosa55 registered @ 2013-01-16 18:52:26, last login @ 2013-01-16 18:52:26
  65. 0buglefrance9 registered @ 2013-01-16 18:53:14, last login @ 2013-01-16 18:53:14
  66. 0bottom37veil registered @ 2013-01-16 18:54:25, last login @ 2013-01-16 18:54:25
  67. 0costwhip5 registered @ 2013-01-16 18:55:18, last login @ 2013-01-16 18:55:18
  68. 0coiljump38 registered @ 2013-01-16 18:55:37, last login @ 2013-01-16 18:55:37
  69. 0desire23paper registered @ 2013-01-16 18:56:05, last login @ 2013-01-16 18:56:05
  70. 0grapetempo6 registered @ 2013-01-16 18:59:42, last login @ 2013-01-16 18:59:42
  71. 0boy7hour registered @ 2013-01-16 19:00:06, last login @ 2013-01-16 19:00:06
  72. 0tailorbelief02 registered @ 2013-01-16 19:00:13, last login @ 2013-01-16 19:00:13
  73. 0relishicicle3 registered @ 2013-01-16 19:00:35, last login @ 2013-01-16 19:00:35
  74. 0icicle5drama registered @ 2013-01-16 19:00:48, last login @ 2013-01-16 19:00:48
  75. 0spot1bottom registered @ 2013-01-16 19:01:30, last login @ 2013-01-16 19:01:30
  76. 0cornwalrus5 registered @ 2013-01-16 19:01:38, last login @ 2013-01-16 19:01:38
  77. 0panfold6 registered @ 2013-01-16 19:02:28, last login @ 2013-01-16 19:02:28
  78. 0libragemini5 registered @ 2013-01-16 19:03:37, last login @ 2013-01-16 20:00:33
  79. 0act05snake registered @ 2013-01-16 19:04:01, last login @ 2013-01-16 19:04:01
  80. 0flylawyer9 registered @ 2013-01-16 19:04:19, last login @ 2013-01-16 19:04:19
  81. 0epochcelery5 registered @ 2013-01-16 19:04:33, last login @ 2013-01-16 19:04:33
  82. 0bait0summer registered @ 2013-01-16 19:04:44, last login @ 2013-01-16 19:04:44
  83. 0goal2watch registered @ 2013-01-16 19:06:32, last login @ 2013-01-16 19:06:32
  84. 0cream3floor registered @ 2013-01-16 19:06:43, last login @ 2013-01-16 19:06:43
  85. 0josephhelp2 registered @ 2013-01-16 19:06:56, last login @ 2013-01-16 19:06:56
  86. 0reward79linen registered @ 2013-01-16 19:07:10, last login @ 2013-01-16 19:07:10
  87. 0room38parrot registered @ 2013-01-16 19:07:29, last login @ 2013-01-16 19:07:29
  88. 0garlic7lizard registered @ 2013-01-16 19:08:51, last login @ 2013-01-16 19:08:51
  89. 0base1sprout registered @ 2013-01-16 19:08:57, last login @ 2013-01-16 19:08:57
  90. 0kickcook58 registered @ 2013-01-16 19:09:03, last login @ 2013-01-16 19:09:03
  91. 0coooli registered @ 2013-01-16 19:09:16, last login @ 2013-01-16 19:09:16
  92. 0Jmedoulyal registered @ 2013-01-16 19:09:47, last login @ 2013-01-16 19:09:47
  93. 0supplycd68 registered @ 2013-01-16 19:10:24, last login @ 2013-01-16 19:10:24
  94. 0tower8foot registered @ 2013-01-16 19:10:30, last login @ 2013-01-16 19:10:30
  95. 0twinebuffer0 registered @ 2013-01-16 19:10:40, last login @ 2013-01-16 19:10:40
  96. 0rocketcousin34 registered @ 2013-01-16 19:10:50, last login @ 2013-01-16 19:10:50
  97. 0party17adult registered @ 2013-01-16 19:11:17, last login @ 2013-01-16 19:11:17
  98. 0shadewrench44 registered @ 2013-01-16 19:11:28, last login @ 2013-01-16 19:11:28
  99. 0dustlove9 registered @ 2013-01-16 19:12:00, last login @ 2013-01-16 19:58:41
  100. 0jumper16viola registered @ 2013-01-16 19:14:53, last login @ 2013-01-16 19:14:53
  101. 0sarahbolt38 registered @ 2013-01-16 19:15:32, last login @ 2013-01-16 19:15:32

More...

[5469] [5468] [5467] [5466] [5465] [5464] [5463] [5462] [5461] [5460] [5459] [5458] [5457] [5456] [5455] [5454] [5453] [5452] [5451] [5450] ...[1]
Back to Top